Time,TemperatureF,DewpointF,PressureIn,WindDirection,WindDirectionDegrees,WindSpeedMPH,WindSpeedGustMPH,Humidity,HourlyPrecipIn,Conditions,Clouds,dailyrainin,SoftwareType,DateUTC
2013-07-16 00:00:00,75.2,75.2,30.07,North,0,0.0,0.0,100,0.00,,,0.00,meteo_script,2013-07-16 04:00:00,
2013-07-16 00:05:00,75.0,75.0,30.07,North,0,0.0,0.0,100,0.00,,,0.00,meteo_script,2013-07-16 04:05:00,
2013-07-16 00:10:00,74.8,74.8,30.07,North,0,0.0,0.0,100,0.00,,,0.00,meteo_script,2013-07-16 04:10:00,
2013-07-16 00:15:00,74.6,74.6,30.07,North,0,0.0,0.0,100,0.00,,,0.00,meteo_script,2013-07-16 04:15:00,
2013-07-16 00:25:00,74.5,74.5,30.07,North,0,0.0,0.0,100,0.00,,,0.00,meteo_script,2013-07-16 04:25:00,
2013-07-16 00:30:00,74.3,74.3,30.07,North,0,0.0,0.0,100,0.00,,,0.00,meteo_script,2013-07-16 04:30:00,
2013-07-16 00:40:00,73.9,73.9,30.07,North,0,0.0,0.0,100,0.00,,,0.00,meteo_script,2013-07-16 04:40:00,
2013-07-16 00:45:00,73.8,73.8,30.07,North,0,0.0,0.0,100,0.00,,,0.00,meteo_script,2013-07-16 04:45:00,
2013-07-16 00:50:00,73.7,73.7,30.07,North,0,0.0,0.0,100,0.00,,,0.00,meteo_script,2013-07-16 04:50:00,
2013-07-16 00:55:00,73.6,73.6,30.07,North,0,0.0,0.0,100,0.00,,,0.00,meteo_script,2013-07-16 04:55:00,
2013-07-16 01:00:00,73.5,73.5,30.07,North,0,0.0,0.0,100,0.00,,,0.00,meteo_script,2013-07-16 05:00:00,
2013-07-16 01:05:00,73.3,73.3,30.07,North,0,0.0,0.0,100,0.00,,,0.00,meteo_script,2013-07-16 05:05:00,
2013-07-16 01:15:00,73.2,73.2,30.07,North,0,0.0,0.0,100,0.00,,,0.00,meteo_script,2013-07-16 05:15:00,
2013-07-16 01:20:00,73.0,73.0,30.07,North,0,0.0,0.0,100,0.00,,,0.00,meteo_script,2013-07-16 05:20:00,
2013-07-16 01:25:00,73.0,73.0,30.07,North,0,0.0,0.0,100,0.00,,,0.00,meteo_script,2013-07-16 05:25:00,
2013-07-16 01:35:00,72.9,72.9,30.06,North,0,0.0,0.0,100,0.00,,,0.00,meteo_script,2013-07-16 05:35:00,
2013-07-16 01:40:00,72.8,72.8,30.07,North,0,0.0,0.0,100,0.00,,,0.00,meteo_script,2013-07-16 05:40:00,
2013-07-16 01:50:00,72.7,72.7,30.07,North,0,0.0,0.0,100,0.00,,,0.00,meteo_script,2013-07-16 05:50:00,
2013-07-16 01:55:00,72.7,72.7,30.07,North,0,0.0,0.0,100,0.00,,,0.00,meteo_script,2013-07-16 05:55:00,
2013-07-16 02:00:00,72.6,72.6,30.07,North,0,0.0,0.0,100,0.00,,,0.00,meteo_script,2013-07-16 06:00:00,
2013-07-16 02:10:00,72.5,72.5,30.07,North,0,0.0,0.0,100,0.00,,,0.00,meteo_script,2013-07-16 06:10:00,
2013-07-16 02:15:00,72.4,72.4,30.07,North,0,0.0,0.0,100,0.00,,,0.00,meteo_script,2013-07-16 06:15:00,
2013-07-16 02:20:00,72.3,72.3,30.07,North,0,0.0,0.0,100,0.00,,,0.00,meteo_script,2013-07-16 06:20:00,
2013-07-16 02:30:00,72.4,72.4,30.07,North,0,0.0,0.0,100,0.00,,,0.00,meteo_script,2013-07-16 06:30:00,
2013-07-16 02:35:00,72.4,72.4,30.06,North,0,0.0,0.0,100,0.00,,,0.00,meteo_script,2013-07-16 06:35:00,
2013-07-16 02:40:00,72.6,72.6,30.06,North,0,0.0,0.0,100,0.00,,,0.00,meteo_script,2013-07-16 06:40:00,
2013-07-16 02:50:00,72.5,72.5,30.06,North,0,0.0,0.0,100,0.00,,,0.00,meteo_script,2013-07-16 06:50:00,
2013-07-16 02:55:00,72.3,72.3,30.06,North,0,0.0,0.0,100,0.00,,,0.00,meteo_script,2013-07-16 06:55:00,
2013-07-16 03:05:00,72.0,72.0,30.06,North,0,0.0,0.0,100,0.00,,,0.00,meteo_script,2013-07-16 07:05:00,
2013-07-16 03:10:00,71.9,71.9,30.06,North,0,0.0,0.0,100,0.00,,,0.00,meteo_script,2013-07-16 07:10:00,
2013-07-16 03:15:00,71.7,71.7,30.06,North,0,0.0,0.0,100,0.00,,,0.00,meteo_script,2013-07-16 07:15:00,
2013-07-16 03:25:00,71.6,71.6,30.06,North,0,0.0,0.0,100,0.00,,,0.00,meteo_script,2013-07-16 07:25:00,
2013-07-16 03:30:00,71.6,71.6,30.06,North,0,0.0,0.0,100,0.00,,,0.00,meteo_script,2013-07-16 07:30:00,
2013-07-16 03:40:00,71.6,71.6,30.06,North,0,0.0,0.0,100,0.00,,,0.00,meteo_script,2013-07-16 07:40:00,
2013-07-16 03:45:00,71.7,71.7,30.05,North,0,0.0,0.0,100,0.00,,,0.00,meteo_script,2013-07-16 07:45:00,
2013-07-16 03:55:00,71.6,71.6,30.06,North,0,0.0,0.0,100,0.00,,,0.00,meteo_script,2013-07-16 07:55:00,
2013-07-16 04:00:00,71.6,71.6,30.06,North,0,0.0,0.0,100,0.00,,,0.00,meteo_script,2013-07-16 08:00:00,
2013-07-16 04:05:00,71.5,71.5,30.06,North,0,0.0,0.0,100,0.00,,,0.00,meteo_script,2013-07-16 08:05:00,
2013-07-16 04:10:00,71.5,71.5,30.06,North,0,0.0,0.0,100,0.00,,,0.00,meteo_script,2013-07-16 08:10:00,
2013-07-16 04:20:00,71.3,71.3,30.05,North,0,0.0,0.0,100,0.00,,,0.00,meteo_script,2013-07-16 08:20:00,
2013-07-16 04:25:00,71.4,71.4,30.05,North,0,0.0,0.0,100,0.00,,,0.00,meteo_script,2013-07-16 08:25:00,
2013-07-16 04:35:00,71.4,71.4,30.06,North,0,0.0,0.0,100,0.00,,,0.00,meteo_script,2013-07-16 08:35:00,
2013-07-16 04:40:00,71.3,71.3,30.06,North,0,0.0,0.0,100,0.00,,,0.00,meteo_script,2013-07-16 08:40:00,
2013-07-16 04:50:00,71.0,71.0,30.06,North,0,0.0,0.0,100,0.00,,,0.00,meteo_script,2013-07-16 08:50:00,
2013-07-16 04:55:00,70.9,70.9,30.06,North,0,0.0,0.0,100,0.00,,,0.00,meteo_script,2013-07-16 08:55:00,
2013-07-16 05:05:00,70.6,70.6,30.06,North,0,0.0,0.0,100,0.00,,,0.00,meteo_script,2013-07-16 09:05:00,
2013-07-16 05:10:00,70.5,70.5,30.06,North,0,0.0,0.0,100,0.00,,,0.00,meteo_script,2013-07-16 09:10:00,
2013-07-16 05:15:00,70.5,70.5,30.07,North,0,0.0,0.0,100,0.00,,,0.00,meteo_script,2013-07-16 09:15:00,
2013-07-16 05:25:00,70.5,70.5,30.07,North,0,0.0,0.0,100,0.00,,,0.00,meteo_script,2013-07-16 09:25:00,
2013-07-16 05:30:00,70.5,70.5,30.07,North,0,0.0,0.0,100,0.00,,,0.00,meteo_script,2013-07-16 09:30:00,
2013-07-16 05:35:00,70.5,70.5,30.07,North,0,0.0,0.0,100,0.00,,,0.00,meteo_script,2013-07-16 09:35:00,
2013-07-16 05:45:00,70.5,70.5,30.07,North,0,0.0,0.0,100,0.00,,,0.00,meteo_script,2013-07-16 09:45:00,
2013-07-16 05:50:00,70.4,70.4,30.07,North,0,0.0,0.0,100,0.00,,,0.00,meteo_script,2013-07-16 09:50:00,
2013-07-16 06:00:00,70.2,70.2,30.07,North,0,0.0,0.0,100,0.00,,,0.00,meteo_script,2013-07-16 10:00:00,
2013-07-16 06:05:00,70.1,70.1,30.07,North,0,0.0,0.0,100,0.00,,,0.00,meteo_script,2013-07-16 10:05:00,
2013-07-16 06:10:00,70.0,70.0,30.07,North,0,0.0,0.0,100,0.00,,,0.00,meteo_script,2013-07-16 10:10:00,
2013-07-16 06:20:00,70.0,70.0,30.07,North,0,0.0,0.0,100,0.00,,,0.00,meteo_script,2013-07-16 10:20:00,
2013-07-16 06:25:00,69.9,69.9,30.07,North,0,0.0,0.0,100,0.00,,,0.00,meteo_script,2013-07-16 10:25:00,
2013-07-16 06:35:00,69.9,69.9,30.07,North,0,0.0,0.0,100,0.00,,,0.00,meteo_script,2013-07-16 10:35:00,
2013-07-16 06:40:00,70.0,70.0,30.07,North,0,0.0,0.0,100,0.00,,,0.00,meteo_script,2013-07-16 10:40:00,
2013-07-16 06:45:00,70.1,70.1,30.07,North,0,0.0,0.0,100,0.00,,,0.00,meteo_script,2013-07-16 10:45:00,
2013-07-16 06:55:00,70.4,70.4,30.08,North,0,0.0,0.0,100,0.00,,,0.00,meteo_script,2013-07-16 10:55:00,
2013-07-16 07:00:00,70.6,70.6,30.07,North,0,0.0,0.0,100,0.00,,,0.00,meteo_script,2013-07-16 11:00:00,
2013-07-16 07:10:00,70.8,70.8,30.08,North,0,0.0,0.0,100,0.00,,,0.00,meteo_script,2013-07-16 11:10:00,
2013-07-16 07:15:00,71.0,71.0,30.08,North,0,0.0,0.0,100,0.00,,,0.00,meteo_script,2013-07-16 11:15:00,
2013-07-16 07:20:00,71.2,71.2,30.08,North,0,0.0,0.0,100,0.00,,,0.00,meteo_script,2013-07-16 11:20:00,
2013-07-16 07:30:00,71.6,71.6,30.08,North,0,0.0,0.0,100,0.00,,,0.00,meteo_script,2013-07-16 11:30:00,
2013-07-16 07:35:00,71.8,71.8,30.08,North,0,0.0,0.0,100,0.00,,,0.00,meteo_script,2013-07-16 11:35:00,
2013-07-16 07:40:00,72.0,72.0,30.08,North,0,0.0,0.0,100,0.00,,,0.00,meteo_script,2013-07-16 11:40:00,
2013-07-16 07:50:00,72.5,72.5,30.08,North,0,0.0,0.0,100,0.00,,,0.00,meteo_script,2013-07-16 11:50:00,
2013-07-16 07:55:00,72.7,72.7,30.08,North,0,0.0,0.0,100,0.00,,,0.00,meteo_script,2013-07-16 11:55:00,
2013-07-16 08:05:00,73.2,73.2,30.09,North,0,0.0,0.0,100,0.00,,,0.00,meteo_script,2013-07-16 12:05:00,
2013-07-16 08:10:00,73.6,73.6,30.09,North,0,0.0,0.0,100,0.00,,,0.00,meteo_script,2013-07-16 12:10:00,
2013-07-16 08:15:00,74.0,74.0,30.09,North,0,0.0,0.0,100,0.00,,,0.00,meteo_script,2013-07-16 12:15:00,
2013-07-16 08:25:00,74.9,74.9,30.09,North,0,0.0,0.0,100,0.00,,,0.00,meteo_script,2013-07-16 12:25:00,
2013-07-16 08:30:00,75.3,75.3,30.09,North,0,0.0,0.0,100,0.00,,,0.00,meteo_script,2013-07-16 12:30:00,
2013-07-16 08:40:00,75.9,75.9,30.09,North,0,0.0,0.0,100,0.00,,,0.00,meteo_script,2013-07-16 12:40:00,
2013-07-16 08:45:00,76.0,76.0,30.09,North,0,0.0,0.0,100,0.00,,,0.00,meteo_script,2013-07-16 12:45:00,
2013-07-16 08:50:00,76.2,76.2,30.09,North,0,0.0,1.0,100,0.00,,,0.00,meteo_script,2013-07-16 12:50:00,
2013-07-16 09:00:00,76.5,76.5,30.09,North,0,0.0,1.0,100,0.00,,,0.00,meteo_script,2013-07-16 13:00:00,
2013-07-16 09:05:00,76.8,76.5,30.09,North,0,0.0,0.0,99,0.00,,,0.00,meteo_script,2013-07-16 13:05:00,
2013-07-16 09:10:00,77.1,76.7,30.09,North,0,0.0,0.0,98,0.00,,,0.00,meteo_script,2013-07-16 13:10:00,
2013-07-16 09:20:00,77.4,76.8,30.09,North,0,0.0,0.0,98,0.00,,,0.00,meteo_script,2013-07-16 13:20:00,
2013-07-16 09:25:00,77.9,77.2,30.09,North,0,0.0,0.0,98,0.00,,,0.00,meteo_script,2013-07-16 13:25:00,
2013-07-16 09:35:00,78.7,77.5,30.09,North,0,0.0,1.0,96,0.00,,,0.00,meteo_script,2013-07-16 13:35:00,
2013-07-16 09:40:00,79.2,78.0,30.09,North,0,0.0,0.0,96,0.00,,,0.00,meteo_script,2013-07-16 13:40:00,
2013-07-16 09:45:00,79.9,78.4,30.09,North,7,0.1,2.0,95,0.00,,,0.00,meteo_script,2013-07-16 13:45:00,
2013-07-16 09:55:00,80.6,78.2,30.09,North,0,0.1,1.0,92,0.00,,,0.00,meteo_script,2013-07-16 13:55:00,
2013-07-16 10:00:00,80.8,78.4,30.09,North,0,0.0,1.0,92,0.00,,,0.00,meteo_script,2013-07-16 14:00:00,
2013-07-16 10:10:00,81.2,78.1,30.08,North,0,0.0,0.0,90,0.00,,,0.00,meteo_script,2013-07-16 14:10:00,
2013-07-16 10:15:00,81.6,77.8,30.08,North,0,0.0,0.0,88,0.00,,,0.00,meteo_script,2013-07-16 14:15:00,
2013-07-16 10:25:00,83.5,79.2,30.08,North,0,0.0,0.0,87,0.00,,,0.00,meteo_script,2013-07-16 14:25:00,
2013-07-16 10:30:00,84.6,80.3,30.08,North,0,0.0,0.0,87,0.00,,,0.00,meteo_script,2013-07-16 14:30:00,
2013-07-16 10:40:00,86.4,80.9,30.08,North,0,0.0,0.0,84,0.00,,,0.00,meteo_script,2013-07-16 14:40:00,
2013-07-16 10:45:00,87.3,81.5,30.08,North,0,0.0,0.0,83,0.00,,,0.00,meteo_script,2013-07-16 14:45:00,
2013-07-16 10:50:00,88.3,81.9,30.08,North,0,0.0,0.0,81,0.00,,,0.00,meteo_script,2013-07-16 14:50:00,
2013-07-16 11:00:00,89.5,82.5,30.08,North,0,0.0,0.0,80,0.00,,,0.00,meteo_script,2013-07-16 15:00:00,
2013-07-16 11:05:00,90.7,82.1,30.08,North,0,0.0,0.0,76,0.00,,,0.00,meteo_script,2013-07-16 15:05:00,
2013-07-16 11:15:00,91.7,82.0,30.08,North,0,0.0,0.0,73,0.00,,,0.00,meteo_script,2013-07-16 15:15:00,
2013-07-16 11:20:00,92.2,82.7,30.08,North,0,0.0,0.0,74,0.00,,,0.00,meteo_script,2013-07-16 15:20:00,
2013-07-16 11:25:00,92.7,82.5,30.08,North,0,0.0,0.0,72,0.00,,,0.00,meteo_script,2013-07-16 15:25:00,
2013-07-16 11:30:00,93.4,83.3,30.08,North,0,0.0,0.0,72,0.00,,,0.00,meteo_script,2013-07-16 15:30:00,
2013-07-16 11:40:00,93.4,82.1,30.07,North,0,0.1,3.0,70,0.00,,,0.00,meteo_script,2013-07-16 15:40:00,
2013-07-16 11:45:00,93.7,82.4,30.07,North,357,0.1,1.0,70,0.00,,,0.00,meteo_script,2013-07-16 15:45:00,
2013-07-16 11:55:00,95.0,83.2,30.07,North,358,0.1,1.0,69,0.00,,,0.00,meteo_script,2013-07-16 15:55:00,
2013-07-16 12:00:00,95.4,82.7,30.07,North,0,0.1,1.0,67,0.00,,,0.00,meteo_script,2013-07-16 16:00:00,
2013-07-16 12:10:00,95.8,82.1,30.07,West,275,0.4,2.0,65,0.00,,,0.00,meteo_script,2013-07-16 16:10:00,
2013-07-16 12:15:00,96.2,83.4,30.07,West,277,0.3,2.0,66,0.00,,,0.00,meteo_script,2013-07-16 16:15:00,
2013-07-16 12:25:00,96.3,83.4,30.07,SSW,199,0.3,5.0,66,0.00,,,0.00,meteo_script,2013-07-16 16:25:00,
2013-07-16 12:35:00,96.0,82.5,30.07,North,0,0.2,1.0,65,0.00,,,0.00,meteo_script,2013-07-16 16:35:00,
2013-07-16 12:40:00,96.2,82.5,30.07,SSW,199,0.1,2.0,65,0.00,,,0.00,meteo_script,2013-07-16 16:40:00,
2013-07-16 12:50:00,96.9,81.7,30.06,North,3,0.6,4.0,62,0.00,,,0.00,meteo_script,2013-07-16 16:50:00,
2013-07-16 12:55:00,96.6,82.1,30.06,West,281,0.7,5.0,63,0.00,,,0.00,meteo_script,2013-07-16 16:55:00,
2013-07-16 13:05:00,98.2,82.6,30.06,North,0,0.2,1.0,61,0.00,,,0.00,meteo_script,2013-07-16 17:05:00,
2013-07-16 13:10:00,98.2,82.1,30.06,NE,54,0.3,2.0,60,0.00,,,0.00,meteo_script,2013-07-16 17:10:00,
2013-07-16 13:20:00,98.1,82.3,30.06,NW,316,0.5,2.0,60,0.00,,,0.00,meteo_script,2013-07-16 17:20:00,
2013-07-16 13:25:00,98.2,82.4,30.06,NNW,329,0.3,2.0,61,0.00,,,0.00,meteo_script,2013-07-16 17:25:00,
2013-07-16 13:35:00,98.5,81.9,30.06,North,0,0.2,2.0,59,0.00,,,0.00,meteo_script,2013-07-16 17:35:00,
2013-07-16 13:40:00,98.8,81.6,30.06,SW,232,0.2,2.0,58,0.00,,,0.00,meteo_script,2013-07-16 17:40:00,
2013-07-16 13:45:00,99.0,81.3,30.06,WSW,242,0.3,2.0,57,0.00,,,0.00,meteo_script,2013-07-16 17:45:00,
2013-07-16 13:55:00,98.8,80.9,30.06,West,264,0.5,2.0,57,0.00,,,0.00,meteo_script,2013-07-16 17:55:00,
2013-07-16 14:00:00,98.5,80.6,30.06,NNW,337,0.4,3.0,57,0.00,,,0.00,meteo_script,2013-07-16 18:00:00,
2013-07-16 14:10:00,98.5,80.6,30.06,ENE,78,0.3,3.0,57,0.00,,,0.00,meteo_script,2013-07-16 18:10:00,
2013-07-16 14:15:00,98.8,81.7,30.06,ESE,117,0.2,2.0,58,0.00,,,0.00,meteo_script,2013-07-16 18:15:00,
2013-07-16 14:25:00,98.8,81.1,30.05,ESE,117,0.1,1.0,57,0.00,,,0.00,meteo_script,2013-07-16 18:25:00,
2013-07-16 14:30:00,98.9,81.5,30.05,SW,233,0.2,3.0,58,0.00,,,0.00,meteo_script,2013-07-16 18:30:00,
2013-07-16 14:40:00,98.5,80.4,30.05,NW,321,0.4,2.0,56,0.00,,,0.00,meteo_script,2013-07-16 18:40:00,
2013-07-16 14:45:00,98.6,80.7,30.05,NW,320,0.4,3.0,57,0.00,,,0.00,meteo_script,2013-07-16 18:45:00,
2013-07-16 14:50:00,98.8,80.5,30.06,NW,318,0.5,2.0,56,0.00,,,0.00,meteo_script,2013-07-16 18:50:00,
2013-07-16 14:55:00,98.8,80.3,30.06,WSW,240,0.4,2.0,55,0.00,,,0.00,meteo_script,2013-07-16 18:55:00,
2013-07-16 15:05:00,97.7,79.1,30.05,WSW,243,0.2,2.0,55,0.00,,,0.00,meteo_script,2013-07-16 19:05:00,
2013-07-16 15:15:00,97.6,80.3,30.05,North,0,0.2,2.0,58,0.00,,,0.00,meteo_script,2013-07-16 19:15:00,
2013-07-16 15:20:00,97.2,79.7,30.05,NE,44,0.2,2.0,57,0.00,,,0.00,meteo_script,2013-07-16 19:20:00,
2013-07-16 15:30:00,97.2,79.2,30.05,NW,311,0.3,3.0,56,0.00,,,0.00,meteo_script,2013-07-16 19:30:00,
2013-07-16 15:35:00,97.1,78.8,30.05,North,0,0.3,1.0,56,0.00,,,0.00,meteo_script,2013-07-16 19:35:00,
2013-07-16 15:40:00,96.8,79.5,30.05,NNW,340,0.2,2.0,57,0.00,,,0.00,meteo_script,2013-07-16 19:40:00,
2013-07-16 15:50:00,96.5,79.8,30.05,ENE,63,0.3,2.0,59,0.00,,,0.00,meteo_script,2013-07-16 19:50:00,
2013-07-16 15:55:00,96.2,79.5,30.05,East,84,0.1,1.0,59,0.00,,,0.00,meteo_script,2013-07-16 19:55:00,
2013-07-16 16:05:00,95.9,79.5,30.04,East,82,0.1,2.0,59,0.00,,,0.00,meteo_script,2013-07-16 20:05:00,
2013-07-16 16:10:00,95.8,79.2,30.04,ENE,74,0.1,1.0,59,0.00,,,0.00,meteo_script,2013-07-16 20:10:00,
2013-07-16 16:15:00,95.7,79.3,30.04,North,0,0.1,2.0,59,0.00,,,0.00,meteo_script,2013-07-16 20:15:00,
2013-07-16 16:25:00,94.5,78.5,30.05,North,1,0.2,2.0,60,0.00,,,0.00,meteo_script,2013-07-16 20:25:00,
2013-07-16 16:30:00,94.1,78.2,30.05,North,0,0.2,1.0,60,0.00,,,0.00,meteo_script,2013-07-16 20:30:00,
2013-07-16 16:40:00,93.1,78.5,30.05,North,0,0.2,1.0,62,0.00,,,0.00,meteo_script,2013-07-16 20:40:00,
2013-07-16 16:45:00,92.9,77.9,30.05,North,0,0.1,1.0,62,0.00,,,0.00,meteo_script,2013-07-16 20:45:00,
2013-07-16 16:50:00,92.7,78.4,30.05,North,0,0.0,1.0,63,0.00,,,0.00,meteo_script,2013-07-16 20:50:00,
2013-07-16 17:00:00,91.8,78.4,30.05,North,0,0.0,0.0,65,0.00,,,0.00,meteo_script,2013-07-16 21:00:00,
2013-07-16 17:05:00,91.5,78.0,30.05,East,100,0.0,1.0,65,0.00,,,0.00,meteo_script,2013-07-16 21:05:00,
2013-07-16 17:15:00,90.6,78.4,30.05,East,95,0.1,1.0,67,0.00,,,0.00,meteo_script,2013-07-16 21:15:00,
2013-07-16 17:20:00,90.3,78.4,30.05,North,0,0.0,1.0,68,0.00,,,0.00,meteo_script,2013-07-16 21:20:00,
2013-07-16 17:25:00,90.3,78.7,30.05,North,0,0.0,0.0,69,0.00,,,0.00,meteo_script,2013-07-16 21:25:00,
2013-07-16 17:35:00,90.3,78.7,30.05,North,0,0.0,0.0,69,0.00,,,0.00,meteo_script,2013-07-16 21:35:00,
2013-07-16 17:45:00,88.8,78.4,30.05,North,0,0.0,1.0,71,0.00,,,0.00,meteo_script,2013-07-16 21:45:00,
2013-07-16 17:50:00,87.8,78.6,30.05,East,96,0.0,1.0,74,0.00,,,0.00,meteo_script,2013-07-16 21:50:00,
2013-07-16 17:55:00,86.7,78.3,30.05,East,95,0.0,1.0,76,0.00,,,0.00,meteo_script,2013-07-16 21:55:00,
2013-07-16 18:05:00,85.8,77.8,30.05,North,0,0.0,1.0,77,0.00,,,0.00,meteo_script,2013-07-16 22:05:00,
2013-07-16 18:10:00,86.0,78.3,30.05,East,95,0.0,1.0,78,0.00,,,0.00,meteo_script,2013-07-16 22:10:00,
2013-07-16 18:15:00,86.1,78.6,30.05,North,0,0.0,0.0,78,0.00,,,0.00,meteo_script,2013-07-16 22:15:00,
2013-07-16 18:25:00,86.1,78.8,30.05,North,0,0.0,1.0,79,0.00,,,0.00,meteo_script,2013-07-16 22:25:00,
2013-07-16 18:30:00,86.0,79.1,30.05,North,0,0.0,1.0,80,0.00,,,0.00,meteo_script,2013-07-16 22:30:00,
2013-07-16 18:40:00,85.8,79.4,30.05,North,0,0.0,1.0,81,0.00,,,0.00,meteo_script,2013-07-16 22:40:00,
2013-07-16 18:45:00,85.4,79.3,30.06,North,0,0.0,1.0,82,0.00,,,0.00,meteo_script,2013-07-16 22:45:00,
2013-07-16 18:50:00,85.1,79.3,30.06,North,0,0.0,0.0,83,0.00,,,0.00,meteo_script,2013-07-16 22:50:00,
2013-07-16 19:00:00,84.6,79.5,30.06,North,0,0.0,0.0,84,0.00,,,0.00,meteo_script,2013-07-16 23:00:00,
2013-07-16 19:05:00,84.3,79.3,30.06,North,0,0.0,0.0,85,0.00,,,0.00,meteo_script,2013-07-16 23:05:00,
2013-07-16 19:15:00,83.6,79.0,30.06,North,0,0.0,0.0,86,0.00,,,0.00,meteo_script,2013-07-16 23:15:00,
2013-07-16 19:20:00,83.2,78.8,30.06,North,0,0.0,0.0,86,0.00,,,0.00,meteo_script,2013-07-16 23:20:00,
2013-07-16 19:25:00,83.0,78.7,30.06,North,0,0.0,0.0,87,0.00,,,0.00,meteo_script,2013-07-16 23:25:00,
2013-07-16 19:35:00,82.5,78.6,30.07,North,0,0.0,0.0,88,0.00,,,0.00,meteo_script,2013-07-16 23:35:00,
2013-07-16 19:40:00,82.3,78.6,30.07,North,0,0.0,0.0,88,0.00,,,0.00,meteo_script,2013-07-16 23:40:00,
2013-07-16 19:50:00,81.9,78.0,30.07,North,0,0.0,0.0,88,0.00,,,0.00,meteo_script,2013-07-16 23:50:00,
2013-07-16 19:55:00,81.8,78.1,30.07,North,0,0.0,1.0,88,0.00,,,0.00,meteo_script,2013-07-16 23:55:00,
2013-07-16 20:00:00,81.6,78.0,30.07,North,0,0.0,0.0,89,0.00,,,0.00,meteo_script,2013-07-17 00:00:00,
2013-07-16 20:10:00,81.3,78.1,30.07,North,0,0.0,1.0,90,0.00,,,0.00,meteo_script,2013-07-17 00:10:00,
2013-07-16 20:15:00,81.2,77.9,30.07,North,0,0.0,0.0,89,0.00,,,0.00,meteo_script,2013-07-17 00:15:00,
2013-07-16 20:25:00,80.8,77.9,30.08,North,0,0.0,0.0,91,0.00,,,0.00,meteo_script,2013-07-17 00:25:00,
2013-07-16 20:30:00,80.6,77.7,30.08,North,0,0.0,0.0,91,0.00,,,0.00,meteo_script,2013-07-17 00:30:00,
2013-07-16 20:40:00,80.2,77.3,30.08,East,94,0.0,1.0,91,0.00,,,0.00,meteo_script,2013-07-17 00:40:00,
2013-07-16 20:45:00,80.1,77.6,30.08,North,0,0.0,1.0,92,0.00,,,0.00,meteo_script,2013-07-17 00:45:00,
2013-07-16 20:50:00,79.9,77.7,30.09,North,0,0.0,0.0,93,0.00,,,0.00,meteo_script,2013-07-17 00:50:00,
2013-07-16 21:00:00,79.7,77.1,30.09,North,0,0.0,0.0,92,0.00,,,0.00,meteo_script,2013-07-17 01:00:00,
2013-07-16 21:05:00,79.5,77.0,30.09,North,0,0.0,0.0,92,0.00,,,0.00,meteo_script,2013-07-17 01:05:00,
2013-07-16 21:15:00,79.2,76.7,30.09,North,0,0.0,0.0,92,0.00,,,0.00,meteo_script,2013-07-17 01:15:00,
2013-07-16 21:20:00,79.1,77.0,30.09,East,95,0.0,1.0,93,0.00,,,0.00,meteo_script,2013-07-17 01:20:00,
2013-07-16 21:25:00,78.9,76.7,30.09,North,0,0.0,1.0,93,0.00,,,0.00,meteo_script,2013-07-17 01:25:00,
2013-07-16 21:35:00,78.8,76.6,30.09,North,0,0.0,0.0,93,0.00,,,0.00,meteo_script,2013-07-17 01:35:00,
2013-07-16 21:40:00,78.6,76.4,30.09,North,0,0.0,0.0,93,0.00,,,0.00,meteo_script,2013-07-17 01:40:00,
2013-07-16 21:45:00,78.5,76.6,30.10,North,0,0.0,0.0,93,0.00,,,0.00,meteo_script,2013-07-17 01:45:00,
2013-07-16 21:55:00,78.4,76.5,30.10,North,0,0.0,0.0,94,0.00,,,0.00,meteo_script,2013-07-17 01:55:00,
2013-07-16 22:00:00,78.1,76.5,30.10,North,0,0.0,0.0,94,0.00,,,0.00,meteo_script,2013-07-17 02:00:00,
2013-07-16 22:05:00,77.9,76.4,30.10,North,0,0.0,0.0,95,0.00,,,0.00,meteo_script,2013-07-17 02:05:00,
2013-07-16 22:15:00,77.7,76.5,30.10,North,0,0.0,0.0,96,0.00,,,0.00,meteo_script,2013-07-17 02:15:00,
2013-07-16 22:20:00,77.5,76.6,30.09,North,0,0.0,0.0,97,0.00,,,0.00,meteo_script,2013-07-17 02:20:00,
2013-07-16 22:30:00,77.3,75.9,30.10,North,0,0.0,0.0,95,0.00,,,0.00,meteo_script,2013-07-17 02:30:00,
2013-07-16 22:35:00,77.2,76.0,30.10,North,0,0.0,0.0,96,0.00,,,0.00,meteo_script,2013-07-17 02:35:00,
2013-07-16 22:45:00,77.0,76.0,30.10,North,0,0.0,0.0,97,0.00,,,0.00,meteo_script,2013-07-17 02:45:00,
2013-07-16 22:50:00,76.8,76.2,30.10,North,0,0.0,0.0,98,0.00,,,0.00,meteo_script,2013-07-17 02:50:00,
2013-07-16 22:55:00,76.7,76.3,30.10,North,0,0.0,0.0,98,0.00,,,0.00,meteo_script,2013-07-17 02:55:00,
2013-07-16 23:05:00,76.4,76.1,30.10,North,0,0.0,0.0,99,0.00,,,0.00,meteo_script,2013-07-17 03:05:00,
2013-07-16 23:10:00,76.3,76.0,30.10,North,0,0.0,0.0,99,0.00,,,0.00,meteo_script,2013-07-17 03:10:00,
2013-07-16 23:15:00,76.2,76.2,30.10,North,0,0.0,0.0,100,0.00,,,0.00,meteo_script,2013-07-17 03:15:00,
2013-07-16 23:25:00,75.9,75.9,30.10,North,0,0.0,0.0,100,0.00,,,0.00,meteo_script,2013-07-17 03:25:00,
2013-07-16 23:30:00,75.8,75.8,30.10,North,0,0.0,0.0,100,0.00,,,0.00,meteo_script,2013-07-17 03:30:00,
2013-07-16 23:35:00,75.8,75.8,30.10,North,0,0.0,0.0,100,0.00,,,0.00,meteo_script,2013-07-17 03:35:00,
2013-07-16 23:45:00,75.6,75.6,30.10,North,0,0.0,0.0,100,0.00,,,0.00,meteo_script,2013-07-17 03:45:00,
2013-07-16 23:55:00,75.4,75.4,30.10,North,0,0.0,0.0,100,0.00,,,0.00,meteo_script,2013-07-17 03:55:00,